Terminal Aerodrome Forecast
Issued by NWS Cleveland, OH

Home | Current Version | Previous Version | Text Only | Print | Product List | Glossary On
Versions: 1 2 3 4 5 6 7 8 9 10 11 12 13 14 15 16 17 18
928
FTUS41 KCLE 232335
TAFCAK
TAF
KCAK 232335Z 2400/2424 15008KT P6SM SCT200
     FM240600 16010KT P6SM VCSH OVC080
     FM240900 19011KT P6SM OVC080 WS020/23045KT
     FM241500 22015KT P6SM SCT035 BKN060=

USA.gov is the U.S. government's official web portal to all federal, state and local government web resources and services.